Time;durP1;ratioP1;P1;durP2;ratioP2;P2;SDS_P1;SDS_P2;PMS_P1;PMS_P2;Temp;Humidity;BMP_temperature;BMP_pressure;BME280_temperature;BME280_humidity;BME280_pressure;Samples;Min_cycle;Max_cycle;Signal;HPM_P1;HPM_P2
2022/05/07 00:00:40;;;;;;;10.93;6.97;;;17.30;68.50;;;;;;5093001;28;20044;-76
2022/05/07 00:03:06;;;;;;;7.88;6.70;;;17.30;68.60;;;;;;5097172;28;20478;-78
2022/05/07 00:05:31;;;;;;;8.10;6.72;;;17.30;68.60;;;;;;5097385;28;20020;-77
2022/05/07 00:07:58;;;;;;;8.25;7.00;;;17.30;68.60;;;;;;5097043;28;20477;-77
2022/05/07 00:10:24;;;;;;;7.57;6.47;;;17.30;68.70;;;;;;5096990;28;20473;-78
2022/05/07 00:12:50;;;;;;;7.38;6.47;;;17.30;68.90;;;;;;5096874;28;20081;-75
2022/05/07 00:15:15;;;;;;;8.10;7.30;;;17.30;68.90;;;;;;5090260;28;20033;-78
2022/05/07 00:20:26;;;;;;;;;;;17.30;69.10;;;;;;5077281;28;20031;-77
2022/05/07 00:22:51;;;;;;;9.48;7.20;;;17.30;68.70;;;;;;5076518;28;19905;-76
2022/05/07 00:25:17;;;;;;;8.10;7.22;;;17.40;69.10;;;;;;5076429;28;20021;-75
2022/05/07 00:27:43;;;;;;;6.70;5.97;;;17.40;69.20;;;;;;5087136;28;20032;-75
2022/05/07 00:30:09;;;;;;;9.30;7.18;;;17.30;69.20;;;;;;5096581;28;20453;-76
2022/05/07 00:32:35;;;;;;;8.73;7.82;;;17.40;69.40;;;;;;5096479;28;20025;-77
2022/05/07 00:35:01;;;;;;;9.63;7.50;;;17.40;69.50;;;;;;5096534;28;20099;-74
2022/05/07 00:37:27;;;;;;;10.93;7.65;;;17.40;69.50;;;;;;5096462;28;20016;-76
2022/05/07 00:39:52;;;;;;;10.45;7.45;;;17.50;69.40;;;;;;5096431;28;20024;-74
2022/05/07 00:42:20;;;;;;;14.38;8.73;;;17.50;69.20;;;;;;5096419;28;20020;-74
2022/05/07 00:44:46;;;;;;;14.65;7.70;;;17.50;69.20;;;;;;5094229;28;20020;-77
2022/05/07 00:47:14;;;;;;;10.15;8.20;;;17.50;69.20;;;;;;5076085;28;20032;-75
2022/05/07 00:49:52;;;;;;;7.75;6.38;;;17.50;69.40;;;;;;5076021;28;20055;-74
2022/05/07 00:52:18;;;;;;;9.63;8.00;;;17.50;69.50;;;;;;5075965;28;20031;-76
2022/05/07 00:54:45;;;;;;;8.90;8.00;;;17.50;69.50;;;;;;5075824;28;20034;-76
2022/05/07 00:57:15;;;;;;;9.30;8.40;;;17.60;69.60;;;;;;5075826;28;20024;-75
2022/05/07 00:59:42;;;;;;;11.38;8.35;;;17.60;69.60;;;;;;5079177;28;20028;-75
2022/05/07 01:02:08;;;;;;;10.52;7.70;;;17.60;69.50;;;;;;5075734;28;20084;-74
2022/05/07 01:04:36;;;;;;;9.68;8.68;;;17.60;69.40;;;;;;5075635;28;20028;-75
2022/05/07 01:07:02;;;;;;;9.27;8.18;;;17.60;69.30;;;;;;5075519;28;20020;-77
2022/05/07 01:09:29;;;;;;;10.75;8.40;;;17.60;69.30;;;;;;5075496;28;20027;-74
2022/05/07 01:11:56;;;;;;;9.48;7.85;;;17.60;69.30;;;;;;5074010;28;20442;-74
2022/05/07 01:14:22;;;;;;;11.55;7.90;;;17.70;69.30;;;;;;5075619;28;20028;-76
2022/05/07 01:16:47;;;;;;;14.88;9.18;;;17.70;69.40;;;;;;5075346;28;20100;-75
2022/05/07 01:19:13;;;;;;;11.70;8.40;;;17.70;69.30;;;;;;5075341;28;20538;-75
2022/05/07 01:21:39;;;;;;;10.77;8.88;;;17.70;69.30;;;;;;5075257;28;20074;-74
2022/05/07 01:24:05;;;;;;;15.05;8.70;;;17.70;69.20;;;;;;5075228;28;20482;-74
2022/05/07 01:26:31;;;;;;;20.77;8.73;;;17.70;69.10;;;;;;5075205;28;20150;-75
2022/05/07 01:29:03;;;;;;;10.55;8.77;;;17.70;69.20;;;;;;5075151;28;20032;-75
2022/05/07 01:31:29;;;;;;;12.70;8.07;;;17.70;69.10;;;;;;5075107;28;20021;-74
2022/05/07 01:33:55;;;;;;;9.50;8.13;;;17.70;69.30;;;;;;5075026;28;20071;-74
2022/05/07 01:36:21;;;;;;;9.10;8.20;;;17.70;69.30;;;;;;5074741;28;20039;-74
2022/05/07 01:38:48;;;;;;;10.57;8.32;;;17.70;69.30;;;;;;5076005;28;20501;-74
2022/05/07 01:41:15;;;;;;;9.75;8.68;;;17.70;69.20;;;;;;5078034;28;20040;-74
2022/05/07 01:43:40;;;;;;;11.50;9.00;;;17.70;69.20;;;;;;5076651;28;20477;-74
2022/05/07 01:48:51;;;;;;;;;;;17.70;69.10;;;;;;5074655;28;20098;-73
2022/05/07 01:51:17;;;;;;;8.15;7.35;;;17.70;68.90;;;;;;5074783;28;19930;-73
2022/05/07 01:53:42;;;;;;;9.13;8.23;;;17.70;69.00;;;;;;5074596;28;20025;-73
2022/05/07 01:56:08;;;;;;;9.27;8.18;;;17.80;69.20;;;;;;5074523;28;20031;-73
2022/05/07 01:58:34;;;;;;;11.05;8.30;;;17.70;69.90;;;;;;5074628;28;20025;-73
2022/05/07 02:01:00;;;;;;;9.63;8.63;;;17.70;69.20;;;;;;5074277;28;20529;-73
2022/05/07 02:03:25;;;;;;;10.70;9.60;;;17.70;69.10;;;;;;5074441;28;20025;-73
2022/05/07 02:05:51;;;;;;;10.43;9.13;;;17.70;68.90;;;;;;5074382;28;20457;-73
2022/05/07 02:08:17;;;;;;;9.98;7.95;;;17.70;69.00;;;;;;5074308;28;20028;-73
2022/05/07 02:10:43;;;;;;;15.65;10.13;;;17.70;69.00;;;;;;5074329;28;20050;-73
2022/05/07 02:13:09;;;;;;;11.63;9.68;;;17.60;68.80;;;;;;5072785;28;20127;-73
2022/05/07 02:15:35;;;;;;;9.55;8.55;;;17.60;68.80;;;;;;5074033;28;20024;-73
2022/05/07 02:18:01;;;;;;;13.70;10.60;;;17.60;68.90;;;;;;5072842;28;20107;-73
2022/05/07 02:20:26;;;;;;;9.40;8.43;;;17.60;68.90;;;;;;5072751;28;20108;-73
2022/05/07 02:22:55;;;;;;;11.27;10.07;;;17.60;68.90;;;;;;5074263;28;20040;-73
2022/05/07 02:25:24;;;;;;;12.32;10.43;;;17.50;68.70;;;;;;5073339;28;20417;-73
2022/05/07 02:27:50;;;;;;;11.65;9.68;;;17.50;68.70;;;;;;5072605;28;20050;-73
2022/05/07 02:30:19;;;;;;;10.52;8.95;;;17.50;68.80;;;;;;5072546;28;20103;-73
2022/05/07 02:32:48;;;;;;;10.18;9.10;;;17.50;68.90;;;;;;5073751;28;20483;-73
2022/05/07 02:35:15;;;;;;;9.65;7.80;;;17.50;69.00;;;;;;5073735;28;20031;-73
2022/05/07 02:37:41;;;;;;;10.65;9.55;;;17.40;69.00;;;;;;5073695;28;20149;-73
2022/05/07 02:40:08;;;;;;;12.50;9.98;;;17.50;69.00;;;;;;5073633;28;20081;-73
2022/05/07 02:42:36;;;;;;;18.92;10.05;;;17.50;69.00;;;;;;5073628;28;20418;-73
2022/05/07 02:45:03;;;;;;;12.57;8.65;;;17.50;69.00;;;;;;5072616;28;20032;-73
2022/05/07 02:47:29;;;;;;;10.45;9.25;;;17.40;69.00;;;;;;5072240;28;20016;-73
2022/05/07 02:49:55;;;;;;;11.00;8.85;;;17.40;69.00;;;;;;5073546;28;20414;-73
2022/05/07 02:52:21;;;;;;;9.95;8.68;;;17.40;69.20;;;;;;5072102;28;20029;-73
2022/05/07 02:54:47;;;;;;;11.05;9.80;;;17.40;69.20;;;;;;5073238;28;20063;-73
2022/05/07 02:57:12;;;;;;;10.90;9.02;;;17.40;69.20;;;;;;5073327;28;20390;-73
2022/05/07 02:59:39;;;;;;;12.98;10.60;;;17.40;69.20;;;;;;5076343;28;20028;-73
2022/05/07 03:02:07;;;;;;;15.43;10.27;;;17.40;69.20;;;;;;5073273;28;20116;-73
2022/05/07 03:04:33;;;;;;;10.88;8.85;;;17.40;69.00;;;;;;5073254;28;20032;-73
2022/05/07 03:07:00;;;;;;;11.02;9.70;;;17.40;69.20;;;;;;5073278;28;20466;-73
2022/05/07 03:09:25;;;;;;;9.25;8.30;;;17.40;69.20;;;;;;5073235;28;20056;-73
2022/05/07 03:11:51;;;;;;;12.38;9.75;;;17.40;69.30;;;;;;5075547;28;20394;-73
2022/05/07 03:14:17;;;;;;;10.70;9.13;;;17.50;69.40;;;;;;5072981;28;20032;-73
2022/05/07 03:16:43;;;;;;;10.55;9.30;;;17.50;69.50;;;;;;5073092;28;20021;-73
2022/05/07 03:19:09;;;;;;;10.68;9.48;;;17.40;69.50;;;;;;5073030;28;20528;-73
2022/05/07 03:21:34;;;;;;;11.13;9.50;;;17.40;69.50;;;;;;5072994;28;20572;-73
2022/05/07 03:24:01;;;;;;;10.90;9.75;;;17.50;69.60;;;;;;5071661;28;20111;-73
2022/05/07 03:26:27;;;;;;;11.82;10.25;;;17.40;69.60;;;;;;5072958;28;20158;-73
2022/05/07 03:28:52;;;;;;;11.07;9.65;;;17.50;69.50;;;;;;5072884;28;20082;-73
2022/05/07 03:31:18;;;;;;;12.60;8.40;;;17.50;69.40;;;;;;5071596;28;20025;-73
2022/05/07 03:33:44;;;;;;;11.20;9.25;;;17.40;69.50;;;;;;5072831;28;20028;-73
2022/05/07 03:36:11;;;;;;;10.63;9.57;;;17.50;69.70;;;;;;5072852;28;20062;-73
2022/05/07 03:38:36;;;;;;;9.80;8.18;;;17.50;69.60;;;;;;5075564;28;20469;-73
2022/05/07 03:41:03;;;;;;;12.77;10.02;;;17.50;69.70;;;;;;5093004;28;20111;-73
2022/05/07 03:43:28;;;;;;;13.02;10.23;;;17.50;69.80;;;;;;5093022;28;20027;-72
2022/05/07 03:45:54;;;;;;;10.65;9.55;;;17.50;69.80;;;;;;5092942;28;20110;-73
2022/05/07 03:48:20;;;;;;;10.57;9.48;;;17.50;69.70;;;;;;5091585;28;20420;-72
2022/05/07 03:50:46;;;;;;;11.13;9.52;;;17.50;69.70;;;;;;5092862;28;20058;-73
2022/05/07 03:53:30;;;;;;;11.32;9.73;;;17.50;69.70;;;;;;5092860;28;20032;-73
2022/05/07 03:56:05;;;;;;;11.70;9.70;;;17.50;69.70;;;;;;5091699;28;20031;-73
2022/05/07 03:58:32;;;;;;;12.65;10.30;;;17.50;69.80;;;;;;5092905;28;20431;-73
2022/05/07 04:00:58;;;;;;;11.32;9.52;;;17.60;69.70;;;;;;5092628;28;20048;-73
2022/05/07 04:03:25;;;;;;;9.60;8.32;;;17.60;69.60;;;;;;5092908;28;20431;-73
2022/05/07 04:05:51;;;;;;;9.65;8.65;;;17.60;69.60;;;;;;5092850;28;20050;-73
2022/05/07 04:08:17;;;;;;;9.15;8.25;;;17.60;69.70;;;;;;5090608;28;20465;-73
2022/05/07 04:10:43;;;;;;;9.43;8.18;;;17.60;69.80;;;;;;5071449;28;20028;-73
2022/05/07 04:13:12;;;;;;;9.50;8.50;;;17.60;69.60;;;;;;5072450;28;20032;-73
2022/05/07 04:15:39;;;;;;;9.85;8.20;;;17.60;69.80;;;;;;5072621;28;20051;-73
2022/05/07 04:18:07;;;;;;;9.52;8.40;;;17.60;69.80;;;;;;5072543;28;20017;-73
2022/05/07 04:20:34;;;;;;;10.52;8.50;;;17.60;69.90;;;;;;5072517;28;20024;-73
2022/05/07 04:23:00;;;;;;;10.75;7.85;;;17.70;70.00;;;;;;5072536;28;20032;-73
2022/05/07 04:25:26;;;;;;;9.48;8.02;;;17.70;69.90;;;;;;5071261;28;20030;-73
2022/05/07 04:27:53;;;;;;;9.70;8.10;;;17.70;69.90;;;;;;5072504;28;20025;-73
2022/05/07 04:30:20;;;;;;;10.82;8.48;;;17.70;69.90;;;;;;5071047;28;20025;-74
2022/05/07 04:32:46;;;;;;;10.10;8.88;;;17.70;69.70;;;;;;5072309;28;20040;-73
2022/05/07 04:35:12;;;;;;;10.88;9.40;;;17.70;69.60;;;;;;5072481;28;20494;-73
2022/05/07 04:37:37;;;;;;;10.50;8.10;;;17.70;69.50;;;;;;5072426;28;20017;-73
2022/05/07 04:40:04;;;;;;;10.90;9.05;;;17.80;69.60;;;;;;5087977;28;20028;-73
2022/05/07 04:42:30;;;;;;;8.90;8.00;;;17.80;69.50;;;;;;5092570;28;20381;-73
2022/05/07 04:44:56;;;;;;;9.95;8.95;;;17.80;69.60;;;;;;5092526;28;20032;-73
2022/05/07 04:47:21;;;;;;;9.48;8.50;;;17.80;69.50;;;;;;5092063;28;20069;-73
2022/05/07 04:49:47;;;;;;;9.63;7.82;;;17.80;69.40;;;;;;5096277;28;20108;-73
2022/05/07 04:52:13;;;;;;;10.38;8.45;;;17.80;69.40;;;;;;5096176;28;20473;-73
2022/05/07 04:54:39;;;;;;;9.30;8.38;;;17.90;69.50;;;;;;5096048;28;20103;-73
2022/05/07 04:57:05;;;;;;;10.52;9.40;;;17.90;69.40;;;;;;5094697;28;20020;-73
2022/05/07 04:59:31;;;;;;;10.25;8.85;;;17.80;69.20;;;;;;5090220;28;20107;-73
2022/05/07 05:01:56;;;;;;;9.13;8.23;;;17.80;69.20;;;;;;5095805;28;20044;-73
2022/05/07 05:04:22;;;;;;;9.30;8.30;;;17.90;69.30;;;;;;5095951;28;20430;-73
2022/05/07 05:06:48;;;;;;;10.75;7.90;;;17.90;69.30;;;;;;5095909;28;20027;-73
2022/05/07 05:09:15;;;;;;;10.63;7.80;;;17.90;69.40;;;;;;5087202;28;20147;-73
2022/05/07 05:11:41;;;;;;;9.70;7.53;;;17.90;69.50;;;;;;5075462;28;20044;-73
2022/05/07 05:15:08;;;;;;;9.88;8.57;;;18.00;69.80;;;;;;5075402;28;20027;-73
2022/05/07 05:17:02;;;;;;;9.48;8.50;;;18.00;69.70;;;;;;5066171;28;20029;-73
2022/05/07 05:19:28;;;;;;;10.07;8.80;;;18.00;69.50;;;;;;5075403;28;20031;-73
2022/05/07 05:21:54;;;;;;;12.07;9.32;;;18.00;69.20;;;;;;5075288;28;20025;-74
2022/05/07 05:24:20;;;;;;;9.45;8.43;;;18.10;69.20;;;;;;5073923;28;20036;-73
2022/05/07 05:26:45;;;;;;;12.35;7.82;;;18.10;69.30;;;;;;5073977;28;20038;-73
2022/05/07 05:29:11;;;;;;;10.85;9.18;;;18.10;69.50;;;;;;5075259;28;20020;-73
2022/05/07 05:31:37;;;;;;;12.15;8.98;;;18.10;69.30;;;;;;5075148;28;20024;-73
2022/05/07 05:34:03;;;;;;;9.15;8.25;;;18.10;69.20;;;;;;5074972;28;20471;-73
2022/05/07 05:36:30;;;;;;;11.43;9.25;;;18.20;69.10;;;;;;5075110;28;20108;-73
2022/05/07 05:38:56;;;;;;;11.68;9.95;;;18.20;69.10;;;;;;5074101;28;20083;-74
2022/05/07 05:41:22;;;;;;;8.85;7.95;;;18.20;69.20;;;;;;5074977;28;20086;-73
2022/05/07 05:43:48;;;;;;;9.52;8.52;;;18.20;69.20;;;;;;5073649;28;20024;-74
2022/05/07 05:46:14;;;;;;;10.93;9.70;;;18.30;69.20;;;;;;5074867;28;20028;-73
2022/05/07 05:48:40;;;;;;;12.63;10.40;;;18.30;69.10;;;;;;5074908;28;20032;-73
2022/05/07 05:51:07;;;;;;;14.45;10.70;;;18.30;68.20;;;;;;5073538;28;20025;-73
2022/05/07 05:53:33;;;;;;;13.45;11.73;;;18.30;67.70;;;;;;5084275;28;20027;-73
2022/05/07 05:56:00;;;;;;;12.68;11.20;;;18.30;67.80;;;;;;5091332;28;20024;-73
2022/05/07 05:58:33;;;;;;;12.48;10.73;;;18.30;68.00;;;;;;5075008;28;20474;-73
2022/05/07 06:01:00;;;;;;;11.35;10.15;;;18.40;68.20;;;;;;5072995;28;20037;-73
2022/05/07 06:03:25;;;;;;;12.20;10.45;;;18.40;67.60;;;;;;5073101;28;20033;-73
2022/05/07 06:05:51;;;;;;;12.30;9.95;;;18.40;67.10;;;;;;5088188;28;20035;-73
2022/05/07 06:08:17;;;;;;;11.55;9.65;;;18.50;67.00;;;;;;5088928;28;20024;-73
2022/05/07 06:10:43;;;;;;;10.02;9.02;;;18.50;66.80;;;;;;5074364;28;20042;-73
2022/05/07 06:13:09;;;;;;;11.25;10.05;;;18.60;67.00;;;;;;5074217;28;20441;-73
2022/05/07 06:15:34;;;;;;;13.30;9.18;;;18.60;66.60;;;;;;5087644;28;20024;-73
2022/05/07 06:18:00;;;;;;;10.05;8.95;;;18.70;66.80;;;;;;5094557;28;20113;-73
2022/05/07 06:20:26;;;;;;;11.38;9.00;;;18.80;67.30;;;;;;5094512;28;20020;-74
2022/05/07 06:22:52;;;;;;;10.10;9.00;;;18.90;67.40;;;;;;5094399;28;20047;-73
2022/05/07 06:28:02;;;;;;;;;;;19.10;68.00;;;;;;5094852;28;20097;-73
2022/05/07 06:30:28;;;;;;;9.00;8.05;;;19.20;68.00;;;;;;5092167;28;19908;-73
2022/05/07 06:32:53;;;;;;;8.68;7.78;;;19.40;68.00;;;;;;5094139;28;20389;-73
2022/05/07 06:35:19;;;;;;;9.32;8.10;;;19.50;67.60;;;;;;5094187;28;20385;-73
2022/05/07 06:37:48;;;;;;;9.52;7.68;;;19.70;67.40;;;;;;5094146;28;20020;-73
2022/05/07 06:40:15;;;;;;;8.45;7.60;;;19.80;67.70;;;;;;5075513;28;20035;-73
2022/05/07 06:42:43;;;;;;;8.48;7.65;;;19.80;66.30;;;;;;5073702;28;20035;-73
2022/05/07 06:45:09;;;;;;;8.70;7.72;;;20.00;66.20;;;;;;5073753;28;20028;-73
2022/05/07 06:47:35;;;;;;;9.00;8.02;;;20.10;66.10;;;;;;5072402;28;20024;-73
2022/05/07 06:50:01;;;;;;;9.30;7.93;;;20.10;65.90;;;;;;5073471;28;20497;-73
2022/05/07 06:52:27;;;;;;;7.57;6.80;;;20.20;65.70;;;;;;5076988;28;20113;-73
2022/05/07 06:54:53;;;;;;;7.97;7.00;;;20.30;65.60;;;;;;5093588;28;20028;-73
2022/05/07 06:57:19;;;;;;;9.65;8.32;;;20.30;66.00;;;;;;5093606;28;20032;-73
2022/05/07 06:59:45;;;;;;;8.65;7.75;;;20.40;64.60;;;;;;5093578;28;20112;-73
2022/05/07 07:02:11;;;;;;;8.73;6.93;;;20.40;64.20;;;;;;5093610;28;20396;-73
2022/05/07 07:04:36;;;;;;;8.10;7.22;;;20.50;63.90;;;;;;5093538;28;20095;-73
2022/05/07 07:07:02;;;;;;;9.20;7.45;;;20.40;63.20;;;;;;5093593;28;20469;-73
2022/05/07 07:09:28;;;;;;;9.68;7.50;;;20.40;62.90;;;;;;5081490;28;20029;-73
2022/05/07 07:11:54;;;;;;;8.95;7.50;;;20.50;62.40;;;;;;5071874;28;20029;-73
2022/05/07 07:14:19;;;;;;;10.73;7.22;;;20.40;61.60;;;;;;5083999;28;20028;-73
2022/05/07 07:16:45;;;;;;;9.23;7.63;;;20.40;61.70;;;;;;5093456;28;20047;-73
2022/05/07 07:19:11;;;;;;;6.30;5.65;;;20.40;61.60;;;;;;5091379;28;20038;-73
2022/05/07 07:21:37;;;;;;;7.60;6.80;;;20.40;62.00;;;;;;5093337;28;20020;-73
2022/05/07 07:24:03;;;;;;;7.97;6.43;;;20.40;62.10;;;;;;5093263;28;20024;-73
2022/05/07 07:26:29;;;;;;;9.07;6.45;;;20.30;61.30;;;;;;5093231;28;20062;-73
2022/05/07 07:28:56;;;;;;;8.60;5.90;;;20.30;61.60;;;;;;5093155;28;20052;-73
2022/05/07 07:31:22;;;;;;;7.78;6.40;;;20.30;61.80;;;;;;5093134;28;20024;-73
2022/05/07 07:33:47;;;;;;;7.70;6.43;;;20.30;61.40;;;;;;5093060;28;20016;-73
2022/05/07 07:36:13;;;;;;;7.25;6.47;;;20.30;61.20;;;;;;5093098;28;20028;-72
2022/05/07 07:38:39;;;;;;;8.60;6.50;;;20.30;61.30;;;;;;5073423;28;20035;-73
2022/05/07 07:41:05;;;;;;;7.97;5.95;;;20.20;61.10;;;;;;5084984;28;20024;-73
2022/05/07 07:43:31;;;;;;;7.60;5.60;;;20.20;61.30;;;;;;5082495;28;20028;-73
2022/05/07 07:48:42;;;;;;;13.55;6.25;;;20.20;61.80;;;;;;5079116;28;20500;-73
2022/05/07 07:51:08;;;;;;;8.73;6.40;;;20.20;61.20;;;;;;5092767;28;20133;-73
2022/05/07 07:53:34;;;;;;;6.50;5.35;;;20.20;60.90;;;;;;5085808;28;20487;-73
2022/05/07 07:56:00;;;;;;;7.07;5.65;;;20.10;60.80;;;;;;5092393;28;20028;-73
2022/05/07 07:58:26;;;;;;;7.07;5.75;;;20.10;60.70;;;;;;5088243;28;20035;-73
2022/05/07 08:00:52;;;;;;;6.85;5.35;;;20.10;60.80;;;;;;5087874;28;20051;-73
2022/05/07 08:03:20;;;;;;;6.28;5.28;;;20.10;60.80;;;;;;5085599;28;20028;-73
2022/05/07 08:05:52;;;;;;;8.63;5.68;;;20.10;60.40;;;;;;5091813;28;20077;-73
2022/05/07 08:13:53;;;;;;;5.72;5.13;;;20.10;61.50;;;;;;5088885;28;20027;-73
2022/05/07 08:16:20;;;;;;;6.68;4.88;;;20.20;61.50;;;;;;5080265;28;20028;-73
2022/05/07 08:18:46;;;;;;;6.22;4.93;;;20.20;61.70;;;;;;5072596;28;20021;-73
2022/05/07 08:21:12;;;;;;;9.43;5.90;;;20.30;61.90;;;;;;5072637;28;20021;-73
2022/05/07 08:23:39;;;;;;;6.20;4.95;;;20.30;62.00;;;;;;5075546;28;20028;-72
2022/05/07 08:26:06;;;;;;;7.25;5.88;;;20.30;62.10;;;;;;5082165;28;20046;-73
2022/05/07 08:28:36;;;;;;;6.05;5.28;;;20.30;61.90;;;;;;5085504;28;20047;-73
2022/05/07 08:31:03;;;;;;;6.18;5.40;;;20.30;61.30;;;;;;5086411;28;20028;-73
2022/05/07 08:33:31;;;;;;;6.53;5.65;;;20.30;61.20;;;;;;5096522;28;20024;-73
2022/05/07 08:35:58;;;;;;;6.85;5.57;;;20.30;61.20;;;;;;5077813;28;20012;-73
2022/05/07 08:38:24;;;;;;;12.68;4.85;;;20.40;61.50;;;;;;5091698;28;20128;-73
2022/05/07 08:40:50;;;;;;;5.93;5.32;;;20.40;61.90;;;;;;5087033;28;20032;-73
2022/05/07 08:43:17;;;;;;;7.25;5.55;;;20.40;61.60;;;;;;5077675;28;20024;-73
2022/05/07 08:45:44;;;;;;;5.60;5.00;;;20.50;61.40;;;;;;5086635;28;20035;-73
2022/05/07 08:48:10;;;;;;;6.55;5.40;;;20.60;61.50;;;;;;5096255;28;20036;-73
2022/05/07 08:50:39;;;;;;;6.78;5.15;;;20.70;61.50;;;;;;5096288;28;20024;-73
2022/05/07 08:53:05;;;;;;;6.80;5.50;;;20.80;61.60;;;;;;5094053;28;20024;-73
2022/05/07 08:55:31;;;;;;;10.13;5.38;;;20.90;61.40;;;;;;5090944;28;20028;-73
2022/05/07 08:57:57;;;;;;;7.35;5.32;;;21.10;61.00;;;;;;5095987;28;20030;-73
2022/05/07 09:00:25;;;;;;;10.07;6.15;;;21.20;60.70;;;;;;5095888;28;20127;-72
2022/05/07 09:02:55;;;;;;;5.72;5.18;;;21.40;60.00;;;;;;5095939;28;20070;-73
2022/05/07 09:05:30;;;;;;;7.80;5.68;;;21.40;59.90;;;;;;5095840;28;20023;-73
2022/05/07 09:08:01;;;;;;;6.60;5.18;;;21.60;59.50;;;;;;5095973;28;20020;-73
2022/05/07 09:10:29;;;;;;;6.15;5.28;;;21.70;58.80;;;;;;5076379;28;20523;-73
2022/05/07 09:13:08;;;;;;;7.45;5.30;;;21.80;58.60;;;;;;5074184;28;20028;-73
2022/05/07 09:15:35;;;;;;;5.40;4.85;;;21.80;58.70;;;;;;5074615;28;20024;-73
2022/05/07 09:18:12;;;;;;;5.72;5.13;;;21.90;59.00;;;;;;5073978;28;20021;-73
2022/05/07 09:20:38;;;;;;;10.13;5.32;;;22.10;58.80;;;;;;5075478;28;20020;-73
2022/05/07 09:23:04;;;;;;;8.20;4.88;;;22.20;58.70;;;;;;5075333;28;20021;-73
2022/05/07 09:25:30;;;;;;;5.43;4.90;;;22.30;58.50;;;;;;5075378;28;20100;-73
2022/05/07 09:27:59;;;;;;;6.53;4.72;;;22.40;56.60;;;;;;5074013;28;20433;-73
2022/05/07 09:30:28;;;;;;;8.98;5.28;;;22.40;55.60;;;;;;5075287;28;20539;-73
2022/05/07 09:32:56;;;;;;;6.25;4.70;;;22.40;55.80;;;;;;5074914;28;20027;-73
2022/05/07 09:38:12;;;;;;;5.43;4.80;;;22.40;54.30;;;;;;5075366;28;20530;-73
2022/05/07 09:40:43;;;;;;;5.30;4.57;;;22.40;53.40;;;;;;5075062;28;20028;-73
2022/05/07 09:43:11;;;;;;;5.93;5.05;;;22.30;54.10;;;;;;5075060;28;20024;-73
2022/05/07 09:45:38;;;;;;;5.65;5.10;;;22.30;53.60;;;;;;5075000;28;20063;-73
2022/05/07 09:48:06;;;;;;;6.07;5.15;;;22.30;54.30;;;;;;5073620;28;20116;-73
2022/05/07 09:58:43;;;;;;;5.72;4.95;;;22.00;54.00;;;;;;5074778;28;20051;-73
2022/05/07 10:01:20;;;;;;;7.05;5.57;;;22.00;54.40;;;;;;5074398;28;20044;-73
2022/05/07 10:03:48;;;;;;;6.95;5.47;;;22.00;54.60;;;;;;5090207;28;20052;-73
2022/05/07 10:06:30;;;;;;;6.20;5.35;;;22.00;54.70;;;;;;5074462;28;20059;-73
2022/05/07 10:09:15;;;;;;;5.43;4.85;;;22.00;54.00;;;;;;5079727;28;20047;-73
2022/05/07 10:11:42;;;;;;;6.10;5.03;;;22.00;54.00;;;;;;5094751;28;20047;-73
2022/05/07 10:14:07;;;;;;;6.03;5.43;;;22.00;53.90;;;;;;5094586;28;20049;-73
2022/05/07 10:16:33;;;;;;;5.72;5.13;;;22.00;52.70;;;;;;5094581;28;20028;-73
2022/05/07 10:19:13;;;;;;;5.82;5.03;;;21.90;53.50;;;;;;5094541;28;20016;-73
2022/05/07 10:21:39;;;;;;;5.70;5.20;;;21.90;53.50;;;;;;5094623;28;20047;-72
2022/05/07 10:24:05;;;;;;;6.25;5.38;;;21.90;53.50;;;;;;5094451;28;20078;-72
2022/05/07 10:26:39;;;;;;;6.43;5.50;;;21.90;54.10;;;;;;5094378;28;20028;-73
2022/05/07 10:29:07;;;;;;;6.68;5.82;;;21.90;53.60;;;;;;5094360;28;20097;-72
2022/05/07 10:31:45;;;;;;;8.90;6.05;;;21.90;53.90;;;;;;5092963;28;20028;-72
2022/05/07 10:34:23;;;;;;;6.43;5.82;;;21.90;53.60;;;;;;5094210;28;20036;-73
2022/05/07 10:37:03;;;;;;;8.15;5.97;;;22.10;53.60;;;;;;5092860;28;20024;-73
2022/05/07 10:39:30;;;;;;;7.07;5.70;;;22.20;52.70;;;;;;5084491;28;20024;-73
2022/05/07 10:41:57;;;;;;;8.68;6.18;;;22.30;53.00;;;;;;5073689;28;20021;-73
2022/05/07 10:44:33;;;;;;;6.68;5.35;;;22.50;52.10;;;;;;5093175;28;20091;-73
2022/05/07 10:47:10;;;;;;;5.70;5.20;;;22.60;50.70;;;;;;5093747;28;20069;-73
2022/05/07 10:49:50;;;;;;;6.05;5.45;;;22.60;50.40;;;;;;5093972;28;20084;-73
2022/05/07 10:52:27;;;;;;;6.30;5.70;;;22.70;50.60;;;;;;5094000;28;20024;-73
2022/05/07 10:55:13;;;;;;;6.78;6.05;;;22.70;50.10;;;;;;5093784;28;20020;-73
2022/05/07 10:57:45;;;;;;;8.07;5.53;;;22.70;49.90;;;;;;5092477;28;20120;-73
2022/05/07 11:00:29;;;;;;;7.45;5.75;;;22.80;49.60;;;;;;5092322;28;20040;-73
2022/05/07 11:03:00;;;;;;;6.30;5.25;;;22.80;49.30;;;;;;5093606;28;20068;-73
2022/05/07 11:05:33;;;;;;;8.48;5.32;;;22.90;49.50;;;;;;5093580;28;20032;-73
2022/05/07 11:08:00;;;;;;;7.43;5.93;;;23.00;49.60;;;;;;5093698;28;20031;-74
2022/05/07 11:10:26;;;;;;;5.70;5.18;;;23.10;48.40;;;;;;5076331;28;20073;-73
2022/05/07 11:12:53;;;;;;;5.63;5.10;;;23.20;49.40;;;;;;5073204;28;20044;-73
2022/05/07 11:15:25;;;;;;;6.38;4.68;;;23.40;48.50;;;;;;5073204;28;20386;-73
2022/05/07 11:17:51;;;;;;;9.73;6.03;;;23.50;49.30;;;;;;5073164;28;20611;-73
2022/05/07 11:20:38;;;;;;;8.63;5.38;;;23.80;49.30;;;;;;5073201;28;20470;-73
2022/05/07 11:23:04;;;;;;;6.05;4.85;;;24.00;48.80;;;;;;5071820;28;20025;-73
2022/05/07 11:25:30;;;;;;;5.30;4.80;;;24.30;48.90;;;;;;5073031;28;20466;-73
2022/05/07 11:27:58;;;;;;;8.60;4.75;;;24.60;47.50;;;;;;5071420;28;20028;-73
2022/05/07 11:30:25;;;;;;;5.22;4.70;;;24.80;47.40;;;;;;5073081;28;20079;-73
2022/05/07 11:32:53;;;;;;;6.70;5.30;;;25.00;46.80;;;;;;5073033;28;20028;-73
2022/05/07 11:35:24;;;;;;;5.10;4.55;;;25.20;46.40;;;;;;5072966;28;20131;-73
2022/05/07 11:37:50;;;;;;;5.45;4.85;;;25.30;45.90;;;;;;5071733;28;20194;-73
2022/05/07 11:40:27;;;;;;;6.38;4.65;;;25.40;45.40;;;;;;5073205;28;20443;-73
2022/05/07 11:45:25;;;;;;;5.90;5.18;;;25.50;44.80;;;;;;5072954;28;20027;-73
2022/05/07 11:45:39;;;;;;;6.35;5.40;;;25.50;43.80;;;;;;5072993;28;20118;-73
2022/05/07 11:48:14;;;;;;;4.85;4.38;;;25.50;43.50;;;;;;5072832;28;20025;-73
2022/05/07 11:50:51;;;;;;;5.53;4.38;;;25.60;43.70;;;;;;5072853;28;20031;-73
2022/05/07 11:53:18;;;;;;;4.70;4.10;;;25.70;43.90;;;;;;5072923;28;20025;-73
2022/05/07 11:55:45;;;;;;;5.93;4.35;;;25.80;43.80;;;;;;5072796;28;20032;-73
2022/05/07 11:58:17;;;;;;;4.47;4.07;;;25.80;43.20;;;;;;5073841;28;20028;-73
2022/05/07 12:00:44;;;;;;;4.65;4.00;;;25.80;42.80;;;;;;5076643;28;20127;-73
2022/05/07 12:03:11;;;;;;;4.50;4.10;;;25.70;42.90;;;;;;5076848;28;20153;-73
2022/05/07 12:05:41;;;;;;;5.28;4.05;;;25.60;42.60;;;;;;5076833;28;20021;-73
2022/05/07 12:08:33;;;;;;;5.07;4.30;;;25.40;43.20;;;;;;5076794;28;20373;-73
2022/05/07 12:10:59;;;;;;;6.03;4.22;;;25.10;43.60;;;;;;5076762;28;20024;-73
2022/05/07 12:13:26;;;;;;;4.97;4.43;;;24.90;44.20;;;;;;5076627;28;20415;-73
2022/05/07 12:18:41;;;;;;;8.50;5.22;;;24.50;45.30;;;;;;5076669;28;20390;-73
2022/05/07 12:21:07;;;;;;;9.48;5.65;;;24.20;45.70;;;;;;5076616;28;20012;-73
2022/05/07 12:31:49;;;;;;;7.47;6.43;;;23.20;47.90;;;;;;5076529;28;20061;-73
2022/05/07 12:34:15;;;;;;;6.68;5.55;;;22.90;48.50;;;;;;5075985;28;20112;-73
2022/05/07 12:36:41;;;;;;;9.68;6.72;;;22.70;49.40;;;;;;5076025;28;20099;-73
2022/05/07 12:39:07;;;;;;;9.82;5.88;;;22.50;50.60;;;;;;5076443;28;20035;-73
2022/05/07 12:41:32;;;;;;;8.88;6.68;;;22.30;50.90;;;;;;5075991;28;20136;-73
2022/05/07 12:44:01;;;;;;;6.05;5.43;;;22.10;51.50;;;;;;5074715;28;20032;-73
2022/05/07 12:46:27;;;;;;;5.88;5.30;;;21.90;51.80;;;;;;5077711;28;20026;-73
2022/05/07 12:48:56;;;;;;;6.07;5.47;;;21.70;52.20;;;;;;5074517;28;20028;-73
2022/05/07 12:51:25;;;;;;;7.68;5.78;;;21.50;52.20;;;;;;5075659;28;20448;-73
2022/05/07 12:53:54;;;;;;;7.07;6.03;;;21.50;52.90;;;;;;5074366;28;20052;-73
2022/05/07 12:56:22;;;;;;;8.32;5.97;;;21.40;53.40;;;;;;5074377;28;21713;-73
2022/05/07 12:58:49;;;;;;;7.45;6.38;;;21.20;53.60;;;;;;5075844;28;20107;-72
2022/05/07 13:01:15;;;;;;;8.50;6.93;;;21.10;53.80;;;;;;5075343;28;20047;-72
2022/05/07 13:03:41;;;;;;;10.07;6.57;;;21.10;53.90;;;;;;5075433;28;20058;-73
2022/05/07 13:06:07;;;;;;;8.45;6.30;;;21.10;54.50;;;;;;5078690;28;20033;-73
2022/05/07 13:08:33;;;;;;;7.15;6.30;;;21.00;54.70;;;;;;5075269;28;20330;-72
2022/05/07 13:10:59;;;;;;;6.70;6.03;;;21.00;54.90;;;;;;5075514;28;20051;-73
2022/05/07 13:13:25;;;;;;;8.85;5.95;;;21.00;55.10;;;;;;5075242;28;20028;-73
2022/05/07 13:15:51;;;;;;;10.07;6.45;;;21.00;55.10;;;;;;5075183;28;20470;-72
2022/05/07 13:18:18;;;;;;;7.05;6.22;;;20.90;55.10;;;;;;5075333;28;20017;-72
2022/05/07 13:20:44;;;;;;;7.07;6.35;;;20.90;55.10;;;;;;5075148;28;20031;-72
2022/05/07 13:23:12;;;;;;;9.30;6.75;;;20.90;55.40;;;;;;5075122;28;20460;-72